Accueil
METAR-TAF:

METAR-TAF

Aéroports :

Aéroport international de Berne

Berne, Suisse

latitude: 46-55N, longitude: 007-30E, altitude: 505 m

Observation

Le bulletin a été fait il y a 14 minutes, à 09:20 UTC
Vent 2 kt de direction variable
Température 6°C
Humidité 93%
Pression 997 hPa
Visibilité 10 km ou plus
Quelques nuages à une hauteur de 10000 ft

METAR: LSZB 030920Z VRB02KT 9999 FEW100 06/05 Q0997

Heure: 10:34 (09:34 UTC)

Prévision

Le bulletin a été fait il y a 1 heure et 9 minutes, à 08:25 UTC
Prévision valable du 03 à 09 UTC au 03 à 18 UTC
Vent 2 kt de direction variable
Visibilité 10 km ou plus
Quelques nuages à une hauteur de 8000 ft
Nuages épars à une hauteur de 14000 ft

TAF: LSZB 030825Z 0309/0318 VRB02KT 9999 FEW080 SCT140

Observations et prévisions météorologiques de plus de 4000 aéroports (messages METAR et TAF).

Les stations disponibles sont représentées par des disques jaunes et rouges sur la carte.

Passer la souris dessus pour voir le nom de la station.

Cliquer dessus pour voir les observations et prévisions météorologiques.

Pour changer de carte: cliquez sur les boutons verts avec une croix noire pour zoomer, sur le bouton vert avec un tiret pour effectuer un zoom arrière, ou sur les flèches vertes pour les cartes adjacentes.


METAR-TAF: